sensor_id;sensor_type;location;lat;lon;timestamp;pressure;altitude;pressure_sealevel;temperature;humidity
44734;BME280;30462;52.446;-1.930;2023-04-03T00:00:19;101775.125;;;;
44734;BME280;30462;52.446;-1.930;2023-04-03T00:01:18;101777.3164;;;;
44734;BME280;30462;52.446;-1.930;2023-04-03T00:02:18;101777.4023;;;;
44734;BME280;30462;52.446;-1.930;2023-04-03T00:03:18;101777.4023;;;;
44734;BME280;30462;52.446;-1.930;2023-04-03T00:04:18;101779.4453;;;;
44734;BME280;30462;52.446;-1.930;2023-04-03T00:05:18;101777.6875;;;;
44734;BME280;30462;52.446;-1.930;2023-04-03T00:06:18;101776.0781;;;;
44734;BME280;30462;52.446;-1.930;2023-04-03T00:07:18;101776.0352;;;;
44734;BME280;30462;52.446;-1.930;2023-04-03T00:08:19;101777.0117;;;;
44734;BME280;30462;52.446;-1.930;2023-04-03T00:09:18;101774.9414;;;;
44734;BME280;30462;52.446;-1.930;2023-04-03T00:10:19;101773.5508;;;;
44734;BME280;30462;52.446;-1.930;2023-04-03T00:11:18;101774.457;;;;
44734;BME280;30462;52.446;-1.930;2023-04-03T00:12:18;101772.2969;;;;
44734;BME280;30462;52.446;-1.930;2023-04-03T00:13:18;101772.0742;;;;
44734;BME280;30462;52.446;-1.930;2023-04-03T00:14:18;101774.4609;;;;
44734;BME280;30462;52.446;-1.930;2023-04-03T00:15:18;101775.2344;;;;
44734;BME280;30462;52.446;-1.930;2023-04-03T00:16:18;101773.3242;;;;
44734;BME280;30462;52.446;-1.930;2023-04-03T00:17:18;101777.3164;;;;
44734;BME280;30462;52.446;-1.930;2023-04-03T00:18:18;101774.8594;;;;
44734;BME280;30462;52.446;-1.930;2023-04-03T00:19:18;101779.1719;;;;
44734;BME280;30462;52.446;-1.930;2023-04-03T00:20:18;101777.7539;;;;
44734;BME280;30462;52.446;-1.930;2023-04-03T00:21:18;101776.9297;;;;
44734;BME280;30462;52.446;-1.930;2023-04-03T00:22:18;101779.9961;;;;
44734;BME280;30462;52.446;-1.930;2023-04-03T00:23:18;101779.2031;;;;
44734;BME280;30462;52.446;-1.930;2023-04-03T00:24:18;101777.1758;;;;
44734;BME280;30462;52.446;-1.930;2023-04-03T00:25:18;101776.4141;;;;
44734;BME280;30462;52.446;-1.930;2023-04-03T00:26:18;101776.7383;;;;
44734;BME280;30462;52.446;-1.930;2023-04-03T00:27:18;101775.6172;;;;
44734;BME280;30462;52.446;-1.930;2023-04-03T00:28:18;101774.0234;;;;
44734;BME280;30462;52.446;-1.930;2023-04-03T00:29:18;101777.2109;;;;
44734;BME280;30462;52.446;-1.930;2023-04-03T00:30:18;101775.8086;;;;
44734;BME280;30462;52.446;-1.930;2023-04-03T00:31:18;101780.9727;;;;
44734;BME280;30462;52.446;-1.930;2023-04-03T00:32:18;101777.7422;;;;
44734;BME280;30462;52.446;-1.930;2023-04-03T00:33:18;101778.3789;;;;
44734;BME280;30462;52.446;-1.930;2023-04-03T00:34:17;101777.8633;;;;
44734;BME280;30462;52.446;-1.930;2023-04-03T00:35:19;101776.1758;;;;
44734;BME280;30462;52.446;-1.930;2023-04-03T00:36:18;101778.3047;;;;
44734;BME280;30462;52.446;-1.930;2023-04-03T00:37:18;101775.7148;;;;
44734;BME280;30462;52.446;-1.930;2023-04-03T00:38:18;101775.7656;;;;
44734;BME280;30462;52.446;-1.930;2023-04-03T00:39:18;101773.9492;;;;
44734;BME280;30462;52.446;-1.930;2023-04-03T00:40:18;101777.7109;;;;
44734;BME280;30462;52.446;-1.930;2023-04-03T00:41:18;101775.2188;;;;
44734;BME280;30462;52.446;-1.930;2023-04-03T00:42:18;101773.4492;;;;
44734;BME280;30462;52.446;-1.930;2023-04-03T00:43:20;101774.3398;;;;
44734;BME280;30462;52.446;-1.930;2023-04-03T00:46:17;101771.6016;;;;
44734;BME280;30462;52.446;-1.930;2023-04-03T00:47:18;101768.8789;;;;
44734;BME280;30462;52.446;-1.930;2023-04-03T00:48:20;101772.2148;;;;
44734;BME280;30462;52.446;-1.930;2023-04-03T00:49:18;101772.2148;;;;
44734;BME280;30462;52.446;-1.930;2023-04-03T00:50:18;101768;;;;
44734;BME280;30462;52.446;-1.930;2023-04-03T00:51:19;101770.7227;;;;
44734;BME280;30462;52.446;-1.930;2023-04-03T00:52:19;101772.0742;;;;
44734;BME280;30462;52.446;-1.930;2023-04-03T00:53:19;101772.7578;;;;
44734;BME280;30462;52.446;-1.930;2023-04-03T00:54:18;101770.5273;;;;
44734;BME280;30462;52.446;-1.930;2023-04-03T00:55:18;101775.9023;;;;
44734;BME280;30462;52.446;-1.930;2023-04-03T00:56:19;101773.5117;;;;
44734;BME280;30462;52.446;-1.930;2023-04-03T00:57:18;101771.2852;;;;
44734;BME280;30462;52.446;-1.930;2023-04-03T00:58:19;101772.0859;;;;
44734;BME280;30462;52.446;-1.930;2023-04-03T00:59:18;101770.5586;;;;
44734;BME280;30462;52.446;-1.930;2023-04-03T01:00:18;101771.4648;;;;
44734;BME280;30462;52.446;-1.930;2023-04-03T01:01:20;101770.5469;;;;
44734;BME280;30462;52.446;-1.930;2023-04-03T01:02:18;101771.1992;;;;
44734;BME280;30462;52.446;-1.930;2023-04-03T01:03:18;101770.7695;;;;
44734;BME280;30462;52.446;-1.930;2023-04-03T01:05:18;101769.0039;;;;
44734;BME280;30462;52.446;-1.930;2023-04-03T01:06:20;101772.8438;;;;
44734;BME280;30462;52.446;-1.930;2023-04-03T01:07:20;101769.9609;;;;
44734;BME280;30462;52.446;-1.930;2023-04-03T01:08:18;101767.668;;;;
44734;BME280;30462;52.446;-1.930;2023-04-03T01:09:18;101762.2109;;;;
44734;BME280;30462;52.446;-1.930;2023-04-03T01:10:18;101763.8984;;;;
44734;BME280;30462;52.446;-1.930;2023-04-03T01:11:18;101762.5352;;;;
44734;BME280;30462;52.446;-1.930;2023-04-03T01:12:19;101761.8633;;;;
44734;BME280;30462;52.446;-1.930;2023-04-03T01:13:20;101762.0313;;;;
44734;BME280;30462;52.446;-1.930;2023-04-03T01:14:18;101764.75;;;;
44734;BME280;30462;52.446;-1.930;2023-04-03T01:15:18;101766.8125;;;;
44734;BME280;30462;52.446;-1.930;2023-04-03T01:16:18;101767.5508;;;;
44734;BME280;30462;52.446;-1.930;2023-04-03T01:18:18;101769.4883;;;;
44734;BME280;30462;52.446;-1.930;2023-04-03T01:19:18;101765.0898;;;;
44734;BME280;30462;52.446;-1.930;2023-04-03T01:22:23;101766.082;;;;
44734;BME280;30462;52.446;-1.930;2023-04-03T01:23:24;101768.4844;;;;
44734;BME280;30462;52.446;-1.930;2023-04-03T01:25:18;101767.6016;;;;
44734;BME280;30462;52.446;-1.930;2023-04-03T01:26:18;101762.582;;;;
44734;BME280;30462;52.446;-1.930;2023-04-03T01:27:18;101762.793;;;;
44734;BME280;30462;52.446;-1.930;2023-04-03T01:28:19;101759;;;;
44734;BME280;30462;52.446;-1.930;2023-04-03T01:29:19;101762.457;;;;
44734;BME280;30462;52.446;-1.930;2023-04-03T01:30:19;101761.3438;;;;
44734;BME280;30462;52.446;-1.930;2023-04-03T01:31:19;101760.5781;;;;
44734;BME280;30462;52.446;-1.930;2023-04-03T01:32:18;101758.6797;;;;
44734;BME280;30462;52.446;-1.930;2023-04-03T01:33:18;101756.9102;;;;
44734;BME280;30462;52.446;-1.930;2023-04-03T01:34:18;101758.0547;;;;
44734;BME280;30462;52.446;-1.930;2023-04-03T01:35:18;101755.0117;;;;
44734;BME280;30462;52.446;-1.930;2023-04-03T01:36:19;101752.9922;;;;
44734;BME280;30462;52.446;-1.930;2023-04-03T01:37:18;101751.7188;;;;
44734;BME280;30462;52.446;-1.930;2023-04-03T01:38:18;101752.7578;;;;
44734;BME280;30462;52.446;-1.930;2023-04-03T01:39:18;101751.3789;;;;
44734;BME280;30462;52.446;-1.930;2023-04-03T01:40:18;101748.5977;;;;
44734;BME280;30462;52.446;-1.930;2023-04-03T01:41:18;101748.9219;;;;
44734;BME280;30462;52.446;-1.930;2023-04-03T01:42:18;101749.7344;;;;
44734;BME280;30462;52.446;-1.930;2023-04-03T01:43:18;101749.8672;;;;
44734;BME280;30462;52.446;-1.930;2023-04-03T01:44:18;101749.2305;;;;
44734;BME280;30462;52.446;-1.930;2023-04-03T01:45:18;101750.8906;;;;
44734;BME280;30462;52.446;-1.930;2023-04-03T01:46:19;101745.5938;;;;
44734;BME280;30462;52.446;-1.930;2023-04-03T01:47:18;101748.3203;;;;
44734;BME280;30462;52.446;-1.930;2023-04-03T01:48:18;101746.9727;;;;
44734;BME280;30462;52.446;-1.930;2023-04-03T01:49:18;101745.2539;;;;
44734;BME280;30462;52.446;-1.930;2023-04-03T01:50:18;101746.1992;;;;
44734;BME280;30462;52.446;-1.930;2023-04-03T01:51:18;101747.4648;;;;
44734;BME280;30462;52.446;-1.930;2023-04-03T01:52:18;101745.8516;;;;
44734;BME280;30462;52.446;-1.930;2023-04-03T01:53:18;101746.7539;;;;
44734;BME280;30462;52.446;-1.930;2023-04-03T01:54:18;101748.3164;;;;
44734;BME280;30462;52.446;-1.930;2023-04-03T01:55:18;101749.457;;;;
44734;BME280;30462;52.446;-1.930;2023-04-03T01:56:18;101745.9609;;;;
44734;BME280;30462;52.446;-1.930;2023-04-03T01:57:18;101750.293;;;;
44734;BME280;30462;52.446;-1.930;2023-04-03T01:58:18;101749.3906;;;;
44734;BME280;30462;52.446;-1.930;2023-04-03T01:59:18;101750.125;;;;
44734;BME280;30462;52.446;-1.930;2023-04-03T02:00:18;101749.7383;;;;
44734;BME280;30462;52.446;-1.930;2023-04-03T02:01:18;101754.6523;;;;
44734;BME280;30462;52.446;-1.930;2023-04-03T02:02:18;101752.2813;;;;
44734;BME280;30462;52.446;-1.930;2023-04-03T02:03:18;101755.5273;;;;
44734;BME280;30462;52.446;-1.930;2023-04-03T02:04:18;101753.457;;;;
44734;BME280;30462;52.446;-1.930;2023-04-03T02:05:18;101754.0391;;;;
44734;BME280;30462;52.446;-1.930;2023-04-03T02:06:18;101753.582;;;;
44734;BME280;30462;52.446;-1.930;2023-04-03T02:07:18;101756.0547;;;;
44734;BME280;30462;52.446;-1.930;2023-04-03T02:08:18;101756.6523;;;;
44734;BME280;30462;52.446;-1.930;2023-04-03T02:09:18;101757.6367;;;;
44734;BME280;30462;52.446;-1.930;2023-04-03T02:10:18;101752.9063;;;;
44734;BME280;30462;52.446;-1.930;2023-04-03T02:11:18;101751.0742;;;;
44734;BME280;30462;52.446;-1.930;2023-04-03T02:12:18;101752.0977;;;;
44734;BME280;30462;52.446;-1.930;2023-04-03T02:13:18;101754.2461;;;;
44734;BME280;30462;52.446;-1.930;2023-04-03T02:14:18;101755.1523;;;;
44734;BME280;30462;52.446;-1.930;2023-04-03T02:15:18;101751.4297;;;;
44734;BME280;30462;52.446;-1.930;2023-04-03T02:16:18;101752.2891;;;;
44734;BME280;30462;52.446;-1.930;2023-04-03T02:17:18;101753.8789;;;;
44734;BME280;30462;52.446;-1.930;2023-04-03T02:18:18;101752.9023;;;;
44734;BME280;30462;52.446;-1.930;2023-04-03T02:19:18;101750.4688;;;;
44734;BME280;30462;52.446;-1.930;2023-04-03T02:20:18;101756.2656;;;;
44734;BME280;30462;52.446;-1.930;2023-04-03T02:21:18;101756.582;;;;
44734;BME280;30462;52.446;-1.930;2023-04-03T02:22:18;101754.2617;;;;
44734;BME280;30462;52.446;-1.930;2023-04-03T02:23:18;101753.8555;;;;
44734;BME280;30462;52.446;-1.930;2023-04-03T02:24:18;101752.6055;;;;
44734;BME280;30462;52.446;-1.930;2023-04-03T02:25:18;101752.3594;;;;
44734;BME280;30462;52.446;-1.930;2023-04-03T02:26:18;101754.4258;;;;
44734;BME280;30462;52.446;-1.930;2023-04-03T02:27:18;101756.5898;;;;
44734;BME280;30462;52.446;-1.930;2023-04-03T02:28:18;101755.3633;;;;
44734;BME280;30462;52.446;-1.930;2023-04-03T02:29:17;101758.457;;;;
44734;BME280;30462;52.446;-1.930;2023-04-03T02:30:18;101755.3242;;;;
44734;BME280;30462;52.446;-1.930;2023-04-03T02:31:17;101754.8477;;;;
44734;BME280;30462;52.446;-1.930;2023-04-03T02:32:17;101754.1211;;;;
44734;BME280;30462;52.446;-1.930;2023-04-03T02:33:18;101753.7813;;;;
44734;BME280;30462;52.446;-1.930;2023-04-03T02:34:18;101753.7461;;;;
44734;BME280;30462;52.446;-1.930;2023-04-03T02:35:19;101751.6172;;;;
44734;BME280;30462;52.446;-1.930;2023-04-03T02:36:18;101748.4766;;;;
44734;BME280;30462;52.446;-1.930;2023-04-03T02:37:18;101752.4844;;;;
44734;BME280;30462;52.446;-1.930;2023-04-03T02:38:17;101750.2852;;;;
44734;BME280;30462;52.446;-1.930;2023-04-03T02:39:18;101750.4844;;;;
44734;BME280;30462;52.446;-1.930;2023-04-03T02:40:18;101748.75;;;;
44734;BME280;30462;52.446;-1.930;2023-04-03T02:41:18;101751.4844;;;;
44734;BME280;30462;52.446;-1.930;2023-04-03T02:42:18;101753.9258;;;;
44734;BME280;30462;52.446;-1.930;2023-04-03T02:43:18;101752.2109;;;;
44734;BME280;30462;52.446;-1.930;2023-04-03T02:44:18;101751.4258;;;;
44734;BME280;30462;52.446;-1.930;2023-04-03T02:45:18;101753.2539;;;;
44734;BME280;30462;52.446;-1.930;2023-04-03T02:46:18;101750.1992;;;;
44734;BME280;30462;52.446;-1.930;2023-04-03T02:47:18;101752.332;;;;
44734;BME280;30462;52.446;-1.930;2023-04-03T02:48:18;101747.8828;;;;
44734;BME280;30462;52.446;-1.930;2023-04-03T02:49:18;101750.1133;;;;
44734;BME280;30462;52.446;-1.930;2023-04-03T02:50:18;101748.6289;;;;
44734;BME280;30462;52.446;-1.930;2023-04-03T02:51:18;101749.9961;;;;
44734;BME280;30462;52.446;-1.930;2023-04-03T02:52:18;101749.4219;;;;
44734;BME280;30462;52.446;-1.930;2023-04-03T02:53:18;101743.0117;;;;
44734;BME280;30462;52.446;-1.930;2023-04-03T02:54:18;101746.3594;;;;
44734;BME280;30462;52.446;-1.930;2023-04-03T02:55:18;101746.6758;;;;
44734;BME280;30462;52.446;-1.930;2023-04-03T02:56:18;101745.2344;;;;
44734;BME280;30462;52.446;-1.930;2023-04-03T02:57:18;101745.8555;;;;
44734;BME280;30462;52.446;-1.930;2023-04-03T02:58:18;101745.0547;;;;
44734;BME280;30462;52.446;-1.930;2023-04-03T02:59:18;101746.1523;;;;
44734;BME280;30462;52.446;-1.930;2023-04-03T03:00:18;101747.9258;;;;
44734;BME280;30462;52.446;-1.930;2023-04-03T03:01:18;101744.1602;;;;
44734;BME280;30462;52.446;-1.930;2023-04-03T03:02:17;101747.8945;;;;
44734;BME280;30462;52.446;-1.930;2023-04-03T03:03:18;101746.6641;;;;
44734;BME280;30462;52.446;-1.930;2023-04-03T03:04:18;101746.1914;;;;
44734;BME280;30462;52.446;-1.930;2023-04-03T03:05:18;101743;;;;
44734;BME280;30462;52.446;-1.930;2023-04-03T03:06:18;101741.9414;;;;
44734;BME280;30462;52.446;-1.930;2023-04-03T03:07:18;101740.5195;;;;
44734;BME280;30462;52.446;-1.930;2023-04-03T03:08:18;101740.0742;;;;
44734;BME280;30462;52.446;-1.930;2023-04-03T03:09:18;101741.6875;;;;
44734;BME280;30462;52.446;-1.930;2023-04-03T03:10:18;101742.625;;;;
44734;BME280;30462;52.446;-1.930;2023-04-03T03:11:18;101739.1484;;;;
44734;BME280;30462;52.446;-1.930;2023-04-03T03:12:18;101744.7813;;;;
44734;BME280;30462;52.446;-1.930;2023-04-03T03:13:18;101741.8203;;;;
44734;BME280;30462;52.446;-1.930;2023-04-03T03:14:18;101742.2461;;;;
44734;BME280;30462;52.446;-1.930;2023-04-03T03:15:18;101740.8516;;;;
44734;BME280;30462;52.446;-1.930;2023-04-03T03:16:18;101745.1719;;;;
44734;BME280;30462;52.446;-1.930;2023-04-03T03:17:18;101744.2344;;;;
44734;BME280;30462;52.446;-1.930;2023-04-03T03:18:18;101744.3828;;;;
44734;BME280;30462;52.446;-1.930;2023-04-03T03:19:18;101741.0703;;;;
44734;BME280;30462;52.446;-1.930;2023-04-03T03:20:18;101738.0469;;;;
44734;BME280;30462;52.446;-1.930;2023-04-03T03:21:18;101736.9727;;;;
44734;BME280;30462;52.446;-1.930;2023-04-03T03:22:19;101739.6211;;;;
44734;BME280;30462;52.446;-1.930;2023-04-03T03:23:18;101738.0938;;;;
44734;BME280;30462;52.446;-1.930;2023-04-03T03:24:18;101738.7344;;;;
44734;BME280;30462;52.446;-1.930;2023-04-03T03:25:18;101741.6719;;;;
44734;BME280;30462;52.446;-1.930;2023-04-03T03:26:18;101738.4453;;;;
44734;BME280;30462;52.446;-1.930;2023-04-03T03:27:18;101737.4727;;;;
44734;BME280;30462;52.446;-1.930;2023-04-03T03:28:18;101738.6172;;;;
44734;BME280;30462;52.446;-1.930;2023-04-03T03:29:18;101739.2383;;;;
44734;BME280;30462;52.446;-1.930;2023-04-03T03:30:18;101739.6523;;;;
44734;BME280;30462;52.446;-1.930;2023-04-03T03:31:18;101740.8516;;;;
44734;BME280;30462;52.446;-1.930;2023-04-03T03:32:18;101741.0625;;;;
44734;BME280;30462;52.446;-1.930;2023-04-03T03:33:18;101741.9141;;;;
44734;BME280;30462;52.446;-1.930;2023-04-03T03:34:18;101743.1992;;;;
44734;BME280;30462;52.446;-1.930;2023-04-03T03:35:18;101741.5117;;;;
44734;BME280;30462;52.446;-1.930;2023-04-03T03:36:18;101742.8086;;;;
44734;BME280;30462;52.446;-1.930;2023-04-03T03:37:18;101741.418;;;;
44734;BME280;30462;52.446;-1.930;2023-04-03T03:38:18;101741.4414;;;;
44734;BME280;30462;52.446;-1.930;2023-04-03T03:39:18;101746.1133;;;;
44734;BME280;30462;52.446;-1.930;2023-04-03T03:40:18;101742.2344;;;;
44734;BME280;30462;52.446;-1.930;2023-04-03T03:41:18;101741.3281;;;;
44734;BME280;30462;52.446;-1.930;2023-04-03T03:42:18;101742.7852;;;;
44734;BME280;30462;52.446;-1.930;2023-04-03T03:43:18;101739.7734;;;;
44734;BME280;30462;52.446;-1.930;2023-04-03T03:44:18;101741.6289;;;;
44734;BME280;30462;52.446;-1.930;2023-04-03T03:45:18;101740.2109;;;;
44734;BME280;30462;52.446;-1.930;2023-04-03T03:46:18;101742.8633;;;;
44734;BME280;30462;52.446;-1.930;2023-04-03T03:47:18;101738.168;;;;
44734;BME280;30462;52.446;-1.930;2023-04-03T03:48:18;101738.3164;;;;
44734;BME280;30462;52.446;-1.930;2023-04-03T03:49:18;101741.8242;;;;
44734;BME280;30462;52.446;-1.930;2023-04-03T03:50:18;101738.7461;;;;
44734;BME280;30462;52.446;-1.930;2023-04-03T03:51:18;101738.2773;;;;
44734;BME280;30462;52.446;-1.930;2023-04-03T03:52:18;101736.6953;;;;
44734;BME280;30462;52.446;-1.930;2023-04-03T03:53:18;101736.3984;;;;
44734;BME280;30462;52.446;-1.930;2023-04-03T03:54:18;101738.1055;;;;
44734;BME280;30462;52.446;-1.930;2023-04-03T03:55:18;101736.7461;;;;
44734;BME280;30462;52.446;-1.930;2023-04-03T03:56:17;101735.2383;;;;
44734;BME280;30462;52.446;-1.930;2023-04-03T03:57:17;101736.9102;;;;
44734;BME280;30462;52.446;-1.930;2023-04-03T03:58:18;101734.6289;;;;
44734;BME280;30462;52.446;-1.930;2023-04-03T03:59:18;101737.5703;;;;
44734;BME280;30462;52.446;-1.930;2023-04-03T04:00:18;101736.5352;;;;
44734;BME280;30462;52.446;-1.930;2023-04-03T04:01:18;101736.1641;;;;
44734;BME280;30462;52.446;-1.930;2023-04-03T04:02:18;101739.1211;;;;
44734;BME280;30462;52.446;-1.930;2023-04-03T04:03:18;101741.3867;;;;
44734;BME280;30462;52.446;-1.930;2023-04-03T04:04:18;101742.0195;;;;
44734;BME280;30462;52.446;-1.930;2023-04-03T04:05:18;101742.9805;;;;
44734;BME280;30462;52.446;-1.930;2023-04-03T04:06:18;101745.5195;;;;
44734;BME280;30462;52.446;-1.930;2023-04-03T04:07:18;101747.2539;;;;
44734;BME280;30462;52.446;-1.930;2023-04-03T04:08:18;101747.6563;;;;
44734;BME280;30462;52.446;-1.930;2023-04-03T04:09:18;101744.1758;;;;
44734;BME280;30462;52.446;-1.930;2023-04-03T04:10:18;101742.7891;;;;
44734;BME280;30462;52.446;-1.930;2023-04-03T04:11:18;101745.4727;;;;
44734;BME280;30462;52.446;-1.930;2023-04-03T04:12:18;101745;;;;
44734;BME280;30462;52.446;-1.930;2023-04-03T04:13:18;101743.9648;;;;
44734;BME280;30462;52.446;-1.930;2023-04-03T04:14:18;101746.2617;;;;
44734;BME280;30462;52.446;-1.930;2023-04-03T04:15:18;101746.1523;;;;
44734;BME280;30462;52.446;-1.930;2023-04-03T04:16:18;101747.3203;;;;
44734;BME280;30462;52.446;-1.930;2023-04-03T04:17:18;101746.4727;;;;
44734;BME280;30462;52.446;-1.930;2023-04-03T04:18:18;101742.9844;;;;
44734;BME280;30462;52.446;-1.930;2023-04-03T04:19:17;101742.1211;;;;
44734;BME280;30462;52.446;-1.930;2023-04-03T04:20:17;101738.3359;;;;
44734;BME280;30462;52.446;-1.930;2023-04-03T04:21:18;101735.4531;;;;
44734;BME280;30462;52.446;-1.930;2023-04-03T04:22:18;101737.2734;;;;
44734;BME280;30462;52.446;-1.930;2023-04-03T04:23:18;101735.7773;;;;
44734;BME280;30462;52.446;-1.930;2023-04-03T04:24:18;101734.0273;;;;
44734;BME280;30462;52.446;-1.930;2023-04-03T04:25:19;101735.7188;;;;
44734;BME280;30462;52.446;-1.930;2023-04-03T04:26:17;101733.332;;;;
44734;BME280;30462;52.446;-1.930;2023-04-03T04:27:18;101733.5313;;;;
44734;BME280;30462;52.446;-1.930;2023-04-03T04:28:18;101728.0039;;;;
44734;BME280;30462;52.446;-1.930;2023-04-03T04:29:18;101729.0781;;;;
44734;BME280;30462;52.446;-1.930;2023-04-03T04:30:18;101729.7383;;;;
44734;BME280;30462;52.446;-1.930;2023-04-03T04:31:18;101731.5781;;;;
44734;BME280;30462;52.446;-1.930;2023-04-03T04:32:18;101731.1328;;;;
44734;BME280;30462;52.446;-1.930;2023-04-03T04:33:18;101730.5469;;;;
44734;BME280;30462;52.446;-1.930;2023-04-03T04:34:18;101729.3242;;;;
44734;BME280;30462;52.446;-1.930;2023-04-03T04:35:18;101728.4258;;;;
44734;BME280;30462;52.446;-1.930;2023-04-03T04:36:18;101725.5117;;;;
44734;BME280;30462;52.446;-1.930;2023-04-03T04:37:18;101725.3125;;;;
44734;BME280;30462;52.446;-1.930;2023-04-03T04:38:18;101724.1445;;;;
44734;BME280;30462;52.446;-1.930;2023-04-03T04:39:18;101726.1563;;;;
44734;BME280;30462;52.446;-1.930;2023-04-03T04:40:18;101724.6953;;;;
44734;BME280;30462;52.446;-1.930;2023-04-03T04:41:18;101720.7617;;;;
44734;BME280;30462;52.446;-1.930;2023-04-03T04:42:17;101726.9883;;;;
44734;BME280;30462;52.446;-1.930;2023-04-03T04:43:18;101725.1992;;;;
44734;BME280;30462;52.446;-1.930;2023-04-03T04:44:18;101725.125;;;;
44734;BME280;30462;52.446;-1.930;2023-04-03T04:45:18;101723.6094;;;;
44734;BME280;30462;52.446;-1.930;2023-04-03T04:46:18;101724.7813;;;;
44734;BME280;30462;52.446;-1.930;2023-04-03T04:47:18;101723.0938;;;;
44734;BME280;30462;52.446;-1.930;2023-04-03T04:48:18;101726.1367;;;;
44734;BME280;30462;52.446;-1.930;2023-04-03T04:49:18;101725.6563;;;;
44734;BME280;30462;52.446;-1.930;2023-04-03T04:50:18;101723.9375;;;;
44734;BME280;30462;52.446;-1.930;2023-04-03T04:51:18;101721.9961;;;;
44734;BME280;30462;52.446;-1.930;2023-04-03T04:52:18;101723.9961;;;;
44734;BME280;30462;52.446;-1.930;2023-04-03T04:53:18;101723.0039;;;;
44734;BME280;30462;52.446;-1.930;2023-04-03T04:54:18;101723.3281;;;;
44734;BME280;30462;52.446;-1.930;2023-04-03T04:55:18;101720.7109;;;;
44734;BME280;30462;52.446;-1.930;2023-04-03T04:56:18;101721.6875;;;;
44734;BME280;30462;52.446;-1.930;2023-04-03T04:57:18;101723.0859;;;;
44734;BME280;30462;52.446;-1.930;2023-04-03T04:58:18;101723.2188;;;;
44734;BME280;30462;52.446;-1.930;2023-04-03T04:59:18;101723.8984;;;;
44734;BME280;30462;52.446;-1.930;2023-04-03T05:00:18;101721.5781;;;;
44734;BME280;30462;52.446;-1.930;2023-04-03T05:01:18;101720.6875;;;;
44734;BME280;30462;52.446;-1.930;2023-04-03T05:02:18;101722.4453;;;;
44734;BME280;30462;52.446;-1.930;2023-04-03T05:03:18;101721.3984;;;;
44734;BME280;30462;52.446;-1.930;2023-04-03T05:04:18;101723.1797;;;;
44734;BME280;30462;52.446;-1.930;2023-04-03T05:05:18;101723.6523;;;;
44734;BME280;30462;52.446;-1.930;2023-04-03T05:06:18;101724.25;;;;
44734;BME280;30462;52.446;-1.930;2023-04-03T05:07:18;101727.8125;;;;
44734;BME280;30462;52.446;-1.930;2023-04-03T05:08:18;101726.3555;;;;
44734;BME280;30462;52.446;-1.930;2023-04-03T05:09:18;101728.8359;;;;
44734;BME280;30462;52.446;-1.930;2023-04-03T05:10:18;101729.2656;;;;
44734;BME280;30462;52.446;-1.930;2023-04-03T05:11:18;101732.5078;;;;
44734;BME280;30462;52.446;-1.930;2023-04-03T05:12:18;101734.3789;;;;
44734;BME280;30462;52.446;-1.930;2023-04-03T05:13:18;101733.3594;;;;
44734;BME280;30462;52.446;-1.930;2023-04-03T05:14:18;101735.5273;;;;
44734;BME280;30462;52.446;-1.930;2023-04-03T05:15:18;101738.5898;;;;
44734;BME280;30462;52.446;-1.930;2023-04-03T05:16:18;101737.793;;;;
44734;BME280;30462;52.446;-1.930;2023-04-03T05:17:18;101736.25;;;;
44734;BME280;30462;52.446;-1.930;2023-04-03T05:18:18;101735.7539;;;;
44734;BME280;30462;52.446;-1.930;2023-04-03T05:19:19;101732.8008;;;;
44734;BME280;30462;52.446;-1.930;2023-04-03T05:20:18;101733.4414;;;;
44734;BME280;30462;52.446;-1.930;2023-04-03T05:21:18;101734.2148;;;;
44734;BME280;30462;52.446;-1.930;2023-04-03T05:22:18;101737.3047;;;;
44734;BME280;30462;52.446;-1.930;2023-04-03T05:23:18;101741.4258;;;;
44734;BME280;30462;52.446;-1.930;2023-04-03T05:24:17;101741.6328;;;;
44734;BME280;30462;52.446;-1.930;2023-04-03T05:25:18;101744.8984;;;;
44734;BME280;30462;52.446;-1.930;2023-04-03T05:26:18;101742.4766;;;;
44734;BME280;30462;52.446;-1.930;2023-04-03T05:27:18;101742.1523;;;;
44734;BME280;30462;52.446;-1.930;2023-04-03T05:28:18;101746.7422;;;;
44734;BME280;30462;52.446;-1.930;2023-04-03T05:29:18;101740.8242;;;;
44734;BME280;30462;52.446;-1.930;2023-04-03T05:30:18;101744.3906;;;;
44734;BME280;30462;52.446;-1.930;2023-04-03T05:31:18;101745.5703;;;;
44734;BME280;30462;52.446;-1.930;2023-04-03T05:32:18;101747.5938;;;;
44734;BME280;30462;52.446;-1.930;2023-04-03T05:33:18;101752.1133;;;;
44734;BME280;30462;52.446;-1.930;2023-04-03T05:34:18;101753.3047;;;;
44734;BME280;30462;52.446;-1.930;2023-04-03T05:35:18;101753.8398;;;;
44734;BME280;30462;52.446;-1.930;2023-04-03T05:36:18;101756.3164;;;;
44734;BME280;30462;52.446;-1.930;2023-04-03T05:37:18;101756.5195;;;;
44734;BME280;30462;52.446;-1.930;2023-04-03T05:38:18;101754.3281;;;;
44734;BME280;30462;52.446;-1.930;2023-04-03T05:39:18;101755.9297;;;;
44734;BME280;30462;52.446;-1.930;2023-04-03T05:40:18;101753.2188;;;;
44734;BME280;30462;52.446;-1.930;2023-04-03T05:41:19;101756.2383;;;;
44734;BME280;30462;52.446;-1.930;2023-04-03T05:42:18;101759.1328;;;;
44734;BME280;30462;52.446;-1.930;2023-04-03T05:43:18;101756.0391;;;;
44734;BME280;30462;52.446;-1.930;2023-04-03T05:44:18;101751.8672;;;;
44734;BME280;30462;52.446;-1.930;2023-04-03T05:45:18;101754.7227;;;;
44734;BME280;30462;52.446;-1.930;2023-04-03T05:46:18;101756.2461;;;;
44734;BME280;30462;52.446;-1.930;2023-04-03T05:47:18;101758.293;;;;
44734;BME280;30462;52.446;-1.930;2023-04-03T05:48:18;101756.4844;;;;
44734;BME280;30462;52.446;-1.930;2023-04-03T05:49:18;101755.5273;;;;
44734;BME280;30462;52.446;-1.930;2023-04-03T05:50:18;101757.0117;;;;
44734;BME280;30462;52.446;-1.930;2023-04-03T05:51:19;101755.7773;;;;
44734;BME280;30462;52.446;-1.930;2023-04-03T05:52:22;101758.4297;;;;
44734;BME280;30462;52.446;-1.930;2023-04-03T05:53:18;101758.8281;;;;